createdAt,value
2017-10-23T00:01:27.334Z,10.88
2017-10-23T00:03:54.802Z,10.78
2017-10-23T00:06:22.289Z,10.83
2017-10-23T00:08:49.789Z,10.71
2017-10-23T00:11:17.280Z,10.84
2017-10-23T00:13:44.751Z,10.83
2017-10-23T00:16:12.251Z,10.72
2017-10-23T00:18:39.722Z,10.72
2017-10-23T00:21:07.179Z,10.75
2017-10-23T00:23:34.675Z,10.80
2017-10-23T00:26:02.137Z,10.72
2017-10-23T00:28:29.610Z,10.70
2017-10-23T00:30:57.083Z,10.76
2017-10-23T00:33:24.552Z,10.71
2017-10-23T00:35:52.006Z,10.71
2017-10-23T00:38:19.494Z,10.66
2017-10-23T00:40:46.967Z,10.63
2017-10-23T00:43:14.449Z,10.59
2017-10-23T00:45:41.919Z,10.60
2017-10-23T00:48:09.395Z,10.56
2017-10-23T00:50:36.854Z,10.59
2017-10-23T00:53:04.348Z,10.45
2017-10-23T00:55:31.799Z,10.54
2017-10-23T00:57:59.288Z,10.52
2017-10-23T01:00:26.772Z,10.54
2017-10-23T01:02:54.273Z,10.50
2017-10-23T01:05:21.721Z,10.51
2017-10-23T01:07:49.214Z,10.47
2017-10-23T01:10:16.669Z,10.47
2017-10-23T01:12:44.113Z,10.55
2017-10-23T01:15:11.714Z,10.53
2017-10-23T01:17:39.162Z,10.55
2017-10-23T01:20:06.633Z,10.63
2017-10-23T01:22:34.127Z,10.63
2017-10-23T01:25:01.577Z,10.65
2017-10-23T01:27:29.038Z,10.57
2017-10-23T01:29:56.518Z,10.58
2017-10-23T01:32:23.978Z,10.54
2017-10-23T01:34:51.437Z,10.53
2017-10-23T01:37:18.965Z,10.56
2017-10-23T01:39:46.445Z,10.47
2017-10-23T01:42:13.909Z,10.44
2017-10-23T01:44:41.409Z,10.42
2017-10-23T01:47:08.875Z,10.37
2017-10-23T01:49:36.339Z,10.40
2017-10-23T01:52:03.830Z,10.37
2017-10-23T01:54:31.301Z,10.36
2017-10-23T01:56:58.750Z,10.33
2017-10-23T01:59:26.235Z,10.35
2017-10-23T02:01:53.721Z,10.27
2017-10-23T02:04:21.187Z,10.27
2017-10-23T02:06:48.681Z,10.34
2017-10-23T02:09:16.161Z,10.24
2017-10-23T02:11:43.623Z,10.23
2017-10-23T02:14:11.090Z,10.19
2017-10-23T02:16:38.553Z,10.16
2017-10-23T02:19:06.014Z,10.18
2017-10-23T02:21:33.505Z,10.22
2017-10-23T02:24:00.960Z,10.20
2017-10-23T02:26:28.412Z,10.25
2017-10-23T02:28:55.874Z,10.29
2017-10-23T02:31:23.332Z,10.25
2017-10-23T02:33:50.795Z,10.17
2017-10-23T02:36:18.278Z,10.14
2017-10-23T02:38:45.739Z,10.20
2017-10-23T02:41:13.188Z,10.24
2017-10-23T02:43:40.684Z,10.21
2017-10-23T02:46:08.164Z,10.26
2017-10-23T02:48:35.633Z,10.24
2017-10-23T02:51:03.126Z,10.23
2017-10-23T02:53:30.595Z,10.16
2017-10-23T02:55:58.052Z,10.22
2017-10-23T02:58:25.591Z,10.24
2017-10-23T03:00:53.047Z,10.11
2017-10-23T03:03:20.519Z,10.12
2017-10-23T03:05:47.994Z,10.06
2017-10-23T03:08:15.497Z,10.06
2017-10-23T03:10:42.967Z,10.05
2017-10-23T03:13:10.438Z,10.15
2017-10-23T03:15:37.914Z,10.10
2017-10-23T03:18:05.381Z,10.07
2017-10-23T03:20:32.885Z,10.02
2017-10-23T03:23:00.359Z,10.03
2017-10-23T03:25:27.820Z,10.03
2017-10-23T03:27:55.310Z,9.96
2017-10-23T03:30:22.783Z,10.06
2017-10-23T03:32:50.265Z,10.10
2017-10-23T03:35:17.763Z,10.02
2017-10-23T03:37:45.472Z,10.02
2017-10-23T03:40:12.963Z,10.00
2017-10-23T03:42:40.480Z,10.05
2017-10-23T03:45:07.928Z,10.00
2017-10-23T03:47:35.404Z,10.06
2017-10-23T03:50:02.903Z,10.10
2017-10-23T03:52:30.415Z,10.04
2017-10-23T03:54:57.884Z,10.09
2017-10-23T03:57:25.369Z,10.02
2017-10-23T03:59:52.863Z,10.03
2017-10-23T04:02:20.327Z,9.98
2017-10-23T04:04:47.864Z,10.02
2017-10-23T04:07:15.327Z,10.03
2017-10-23T04:09:42.803Z,10.00
2017-10-23T04:12:10.291Z,9.98
2017-10-23T04:14:37.790Z,9.95
2017-10-23T04:17:05.260Z,10.02
2017-10-23T04:19:32.741Z,9.96
2017-10-23T04:22:00.198Z,9.98
2017-10-23T04:24:27.714Z,9.95
2017-10-23T04:26:55.188Z,9.89
2017-10-23T04:29:22.672Z,9.97
2017-10-23T04:31:50.142Z,9.87
2017-10-23T04:34:17.636Z,9.95
2017-10-23T04:36:45.098Z,9.90
2017-10-23T04:39:12.545Z,9.94
2017-10-23T04:41:40.022Z,9.84
2017-10-23T04:44:07.508Z,9.88
2017-10-23T04:46:34.967Z,9.84
2017-10-23T04:49:02.449Z,9.77
2017-10-23T04:51:29.918Z,9.88
2017-10-23T04:53:57.377Z,9.82
2017-10-23T04:56:24.896Z,9.79
2017-10-23T04:58:52.357Z,9.84
2017-10-23T05:01:19.827Z,9.79
2017-10-23T05:03:47.331Z,9.79
2017-10-23T05:06:14.803Z,9.82
2017-10-23T05:08:42.273Z,9.85
2017-10-23T05:11:09.820Z,9.82
2017-10-23T05:13:37.298Z,9.79
2017-10-23T05:16:04.786Z,9.82
2017-10-23T05:18:32.303Z,9.84
2017-10-23T05:20:59.768Z,9.85
2017-10-23T05:23:27.238Z,9.86
2017-10-23T05:25:54.756Z,9.82
2017-10-23T05:28:22.230Z,9.87
2017-10-23T05:30:49.717Z,9.92
2017-10-23T05:33:17.214Z,9.87
2017-10-23T05:35:44.726Z,9.87
2017-10-23T05:38:12.213Z,9.83
2017-10-23T05:40:39.710Z,9.86
2017-10-23T05:43:08.039Z,9.82
2017-10-23T05:45:35.517Z,9.84
2017-10-23T05:48:03.013Z,9.85
2017-10-23T05:50:31.007Z,9.82
2017-10-23T05:52:58.479Z,9.86
2017-10-23T05:55:25.999Z,9.87
2017-10-23T05:57:53.473Z,9.79
2017-10-23T06:00:20.931Z,9.80
2017-10-23T06:02:48.441Z,9.88
2017-10-23T06:05:15.894Z,9.79
2017-10-23T06:07:43.378Z,9.81
2017-10-23T06:10:11.170Z,9.80
2017-10-23T06:12:38.674Z,9.80
2017-10-23T06:15:06.183Z,9.79
2017-10-23T06:17:33.664Z,9.85
2017-10-23T06:20:01.139Z,9.83
2017-10-23T06:22:28.694Z,9.86
2017-10-23T06:24:56.194Z,9.93
2017-10-23T06:27:23.673Z,9.90
2017-10-23T06:29:51.138Z,10.01
2017-10-23T06:32:18.632Z,10.01
2017-10-23T06:34:46.101Z,10.04
2017-10-23T06:37:13.608Z,10.06
2017-10-23T06:39:41.086Z,10.06
2017-10-23T06:42:08.601Z,10.09
2017-10-23T06:44:36.067Z,10.14
2017-10-23T06:47:03.574Z,10.08
2017-10-23T06:49:31.050Z,10.13
2017-10-23T06:51:58.525Z,10.17
2017-10-23T06:54:26.011Z,10.19
2017-10-23T06:56:53.527Z,10.26
2017-10-23T06:59:20.990Z,10.32
2017-10-23T07:01:48.477Z,10.30
2017-10-23T07:04:15.993Z,10.31
2017-10-23T07:06:43.494Z,10.23
2017-10-23T07:09:11.085Z,10.21
2017-10-23T07:11:38.596Z,10.24
2017-10-23T07:14:06.137Z,10.32
2017-10-23T07:16:33.694Z,10.36
2017-10-23T07:19:01.180Z,10.33
2017-10-23T07:21:28.681Z,10.29
2017-10-23T07:23:56.187Z,10.41
2017-10-23T07:26:23.694Z,10.52
2017-10-23T07:28:51.176Z,10.45
2017-10-23T07:31:18.753Z,10.53
2017-10-23T07:33:46.240Z,10.46
2017-10-23T07:36:13.720Z,10.47
2017-10-23T07:38:41.207Z,10.43
2017-10-23T07:41:08.762Z,10.58
2017-10-23T07:43:36.330Z,10.62
2017-10-23T07:46:03.802Z,10.61
2017-10-23T07:48:31.284Z,10.63
2017-10-23T07:50:58.750Z,10.69
2017-10-23T07:53:31.266Z,10.68
2017-10-23T07:55:58.754Z,10.64
2017-10-23T07:58:26.237Z,10.73
2017-10-23T08:00:53.736Z,10.92
2017-10-23T08:03:21.214Z,10.85
2017-10-23T08:05:48.694Z,11.00
2017-10-23T08:08:16.210Z,10.90
2017-10-23T08:10:43.690Z,10.90
2017-10-23T08:13:11.166Z,10.92
2017-10-23T08:15:38.686Z,10.86
2017-10-23T08:18:06.180Z,10.90
2017-10-23T08:20:33.682Z,10.92
2017-10-23T08:23:01.170Z,10.96
2017-10-23T08:25:28.698Z,10.93
2017-10-23T08:27:56.176Z,10.87
2017-10-23T08:30:23.670Z,10.83
2017-10-23T08:32:51.129Z,10.80
2017-10-23T08:35:18.607Z,10.79
2017-10-23T08:37:46.113Z,10.87
2017-10-23T08:40:13.594Z,10.79
2017-10-23T08:42:41.096Z,10.82
2017-10-23T08:45:08.579Z,10.87
2017-10-23T08:47:36.073Z,10.85
2017-10-23T08:50:03.545Z,11.02
2017-10-23T08:52:31.093Z,10.88
2017-10-23T08:54:58.562Z,10.83
2017-10-23T08:57:26.014Z,10.86
2017-10-23T08:59:53.538Z,10.69
2017-10-23T09:02:21.021Z,10.70
2017-10-23T09:04:48.542Z,10.71
2017-10-23T09:07:16.089Z,10.63
2017-10-23T09:09:43.581Z,10.46
2017-10-23T09:12:11.049Z,10.24
2017-10-23T09:14:38.530Z,10.20
2017-10-23T09:17:06.127Z,10.25
2017-10-23T09:19:33.635Z,10.17
2017-10-23T09:22:01.173Z,10.12
2017-10-23T09:24:28.707Z,10.22
2017-10-23T09:26:56.204Z,10.15
2017-10-23T09:29:23.723Z,10.21
2017-10-23T09:31:51.193Z,10.34
2017-10-23T09:34:18.652Z,10.40
2017-10-23T09:36:46.201Z,10.54
2017-10-23T09:39:13.653Z,10.52
2017-10-23T09:41:41.169Z,10.57
2017-10-23T09:44:08.644Z,10.61
2017-10-23T09:46:36.120Z,10.67
2017-10-23T09:49:03.596Z,10.62
2017-10-23T09:51:31.093Z,10.73
2017-10-23T09:53:58.566Z,10.78
2017-10-23T09:56:26.043Z,10.87
2017-10-23T09:58:53.606Z,10.90
2017-10-23T10:01:21.102Z,10.81
2017-10-23T10:03:48.565Z,10.72
2017-10-23T10:06:16.050Z,10.73
2017-10-23T10:08:43.534Z,10.82
2017-10-23T10:11:11.050Z,10.82
2017-10-23T10:13:38.520Z,10.75
2017-10-23T10:16:05.978Z,10.75
2017-10-23T10:18:33.459Z,10.69
2017-10-23T10:21:00.976Z,10.63
2017-10-23T10:23:28.536Z,10.73
2017-10-23T10:25:56.027Z,10.62
2017-10-23T10:28:24.361Z,10.56
2017-10-23T10:30:51.911Z,10.53
2017-10-23T10:33:19.400Z,10.58
2017-10-23T10:35:46.895Z,10.57
2017-10-23T10:38:14.425Z,10.61
2017-10-23T10:40:41.896Z,10.73
2017-10-23T10:43:09.365Z,10.75
2017-10-23T10:45:36.882Z,10.60
2017-10-23T10:48:04.399Z,10.54
2017-10-23T10:50:31.914Z,10.54
2017-10-23T10:52:59.465Z,10.55
2017-10-23T10:55:26.947Z,10.53
2017-10-23T10:57:54.420Z,10.53
2017-10-23T11:00:21.861Z,10.53
2017-10-23T11:02:49.349Z,10.48
2017-10-23T11:05:16.844Z,10.52
2017-10-23T11:07:44.365Z,10.55
2017-10-23T11:10:11.867Z,10.58
2017-10-23T11:12:39.346Z,10.57
2017-10-23T11:15:06.804Z,10.54
2017-10-23T11:17:34.328Z,10.58
2017-10-23T11:20:01.815Z,10.70
2017-10-23T11:22:29.321Z,10.64
2017-10-23T11:24:56.790Z,10.72
2017-10-23T11:27:24.307Z,10.75
2017-10-23T11:29:51.783Z,10.82
2017-10-23T11:32:19.274Z,10.94
2017-10-23T11:34:46.827Z,10.83
2017-10-23T11:37:14.293Z,10.86
2017-10-23T11:39:41.756Z,10.76
2017-10-23T11:42:09.249Z,10.74
2017-10-23T11:44:36.724Z,10.73
2017-10-23T11:47:04.274Z,10.69
2017-10-23T11:49:31.838Z,10.66
2017-10-23T11:51:59.302Z,10.66
2017-10-23T11:54:26.799Z,10.59
2017-10-23T11:56:54.326Z,10.65
2017-10-23T11:59:21.807Z,10.72
2017-10-23T12:01:49.274Z,10.53
2017-10-23T12:04:17.127Z,10.59
2017-10-23T12:06:44.600Z,10.53
2017-10-23T12:09:12.077Z,10.62
2017-10-23T12:11:39.567Z,10.63
2017-10-23T12:14:07.146Z,10.60
2017-10-23T12:16:34.625Z,10.50
2017-10-23T12:19:02.162Z,10.51
2017-10-23T12:21:29.612Z,10.42
2017-10-23T12:23:57.065Z,10.48
2017-10-23T12:26:24.573Z,10.34
2017-10-23T12:28:52.041Z,10.38
2017-10-23T12:31:19.519Z,10.37
2017-10-23T12:33:47.025Z,10.30
2017-10-23T12:36:14.523Z,10.30
2017-10-23T12:38:42.020Z,10.30
2017-10-23T12:41:09.562Z,10.30
2017-10-23T12:43:37.049Z,10.19
2017-10-23T12:46:04.537Z,10.22
2017-10-23T12:48:32.021Z,10.18
2017-10-23T12:50:59.469Z,10.24
2017-10-23T12:53:26.946Z,10.35
2017-10-23T12:55:54.436Z,10.34
2017-10-23T12:58:21.907Z,10.40
2017-10-23T13:00:49.392Z,10.33
2017-10-23T13:03:16.886Z,10.36
2017-10-23T13:05:44.756Z,10.44
2017-10-23T13:08:12.631Z,10.42
2017-10-23T13:10:40.138Z,10.41
2017-10-23T13:13:07.589Z,10.36
2017-10-23T13:15:35.045Z,10.43
2017-10-23T13:18:02.538Z,10.49
2017-10-23T13:20:30.008Z,10.49
2017-10-23T13:22:57.465Z,10.58
2017-10-23T13:25:24.945Z,10.55
2017-10-23T13:27:52.404Z,10.58
2017-10-23T13:30:19.853Z,10.53
2017-10-23T13:32:47.334Z,10.49
2017-10-23T13:35:14.808Z,10.54
2017-10-23T13:37:42.277Z,10.55
2017-10-23T13:40:09.858Z,10.49
2017-10-23T13:42:37.322Z,10.56
2017-10-23T13:45:04.815Z,10.54
2017-10-23T13:47:32.307Z,10.56
2017-10-23T13:49:59.775Z,10.59
2017-10-23T13:52:27.250Z,10.47
2017-10-23T13:54:54.760Z,10.46
2017-10-23T13:57:22.225Z,10.47
2017-10-23T13:59:49.714Z,10.56
2017-10-23T14:02:17.215Z,10.56
2017-10-23T14:04:44.709Z,10.58
2017-10-23T14:07:12.180Z,10.61
2017-10-23T14:09:39.691Z,10.66
2017-10-23T14:12:07.155Z,10.62
2017-10-23T14:14:34.621Z,10.63
2017-10-23T14:17:02.119Z,10.59
2017-10-23T14:19:29.584Z,10.55
2017-10-23T14:21:57.060Z,10.57
2017-10-23T14:24:24.550Z,10.54
2017-10-23T14:26:52.028Z,10.53
2017-10-23T14:29:19.551Z,10.52
2017-10-23T14:31:47.101Z,10.56
2017-10-23T14:34:14.612Z,10.58
2017-10-23T14:36:42.102Z,10.55
2017-10-23T14:39:09.611Z,10.58
2017-10-23T14:41:37.110Z,10.57
2017-10-23T14:44:04.694Z,10.60
2017-10-23T14:46:32.241Z,10.63
2017-10-23T14:48:59.768Z,10.58
2017-10-23T14:51:27.274Z,10.62
2017-10-23T14:53:54.820Z,10.66
2017-10-23T14:56:22.276Z,10.67
2017-10-23T14:58:49.783Z,10.75
2017-10-23T15:01:17.315Z,10.72
2017-10-23T15:03:44.794Z,10.78
2017-10-23T15:06:12.265Z,10.83
2017-10-23T15:08:39.778Z,10.82
2017-10-23T15:11:07.273Z,10.87
2017-10-23T15:13:34.751Z,10.90
2017-10-23T15:16:02.248Z,10.92
2017-10-23T15:18:29.862Z,10.94
2017-10-23T15:20:57.551Z,10.90
2017-10-23T15:23:25.044Z,10.90
2017-10-23T15:25:52.756Z,10.91
2017-10-23T15:28:20.512Z,10.90
2017-10-23T15:30:48.161Z,10.92
2017-10-23T15:33:15.641Z,10.95
2017-10-23T15:35:43.126Z,10.93
2017-10-23T15:38:10.667Z,10.94
2017-10-23T15:40:38.137Z,10.93
2017-10-23T15:43:05.647Z,10.96
2017-10-23T15:45:33.124Z,10.92
2017-10-23T15:48:00.599Z,10.92
2017-10-23T15:50:28.070Z,10.88
2017-10-23T15:52:55.554Z,10.98
2017-10-23T15:55:23.041Z,11.02
2017-10-23T15:57:50.551Z,11.00
2017-10-23T16:00:18.083Z,11.00
2017-10-23T16:02:45.549Z,10.99
2017-10-23T16:05:13.042Z,10.95
2017-10-23T16:07:40.547Z,10.99
2017-10-23T16:10:08.039Z,11.03
2017-10-23T16:12:35.531Z,10.98
2017-10-23T16:15:03.022Z,10.88
2017-10-23T16:17:30.518Z,10.93
2017-10-23T16:19:57.978Z,10.97
2017-10-23T16:22:25.481Z,10.91
2017-10-23T16:24:52.966Z,11.00
2017-10-23T16:27:20.438Z,10.98
2017-10-23T16:29:47.996Z,10.93
2017-10-23T16:32:15.491Z,10.87
2017-10-23T16:34:42.976Z,10.91
2017-10-23T16:37:10.495Z,10.92
2017-10-23T16:39:37.985Z,10.95
2017-10-23T16:42:05.488Z,10.96
2017-10-23T16:44:33.000Z,10.95
2017-10-23T16:47:00.502Z,10.98
2017-10-23T16:49:27.985Z,10.99
2017-10-23T16:51:55.497Z,10.98
2017-10-23T16:54:22.957Z,10.99
2017-10-23T16:56:50.435Z,11.00
2017-10-23T16:59:17.923Z,10.99
2017-10-23T17:01:45.394Z,11.01
2017-10-23T17:04:12.875Z,10.92
2017-10-23T17:06:40.378Z,10.93
2017-10-23T17:09:07.836Z,10.99
2017-10-23T17:11:35.290Z,10.91
2017-10-23T17:14:02.771Z,10.84
2017-10-23T17:16:30.309Z,10.86
2017-10-23T17:18:57.854Z,10.91
2017-10-23T17:21:25.383Z,10.86
2017-10-23T17:23:52.951Z,10.87
2017-10-23T17:26:20.478Z,10.85
2017-10-23T17:28:47.989Z,10.91
2017-10-23T17:31:15.543Z,10.90
2017-10-23T17:33:43.068Z,10.85
2017-10-23T17:36:10.554Z,10.86
2017-10-23T17:38:38.020Z,10.92
2017-10-23T17:41:05.515Z,10.93
2017-10-23T17:43:33.018Z,10.90
2017-10-23T17:46:00.467Z,10.87
2017-10-23T17:48:27.976Z,10.87
2017-10-23T17:50:55.520Z,10.87
2017-10-23T17:53:23.591Z,10.87
2017-10-23T17:55:51.113Z,10.83
2017-10-23T17:58:18.605Z,10.88
2017-10-23T18:00:46.083Z,10.85
2017-10-23T18:03:13.615Z,10.85
2017-10-23T18:05:41.375Z,10.89
2017-10-23T18:08:08.877Z,10.87
2017-10-23T18:10:36.342Z,10.82
2017-10-23T18:13:03.909Z,10.82
2017-10-23T18:15:31.643Z,10.81
2017-10-23T18:17:59.137Z,10.82
2017-10-23T18:20:26.649Z,10.83
2017-10-23T18:22:54.165Z,10.76
2017-10-23T18:25:21.624Z,10.82
2017-10-23T18:27:49.138Z,10.84
2017-10-23T18:30:16.595Z,10.85
2017-10-23T18:32:44.123Z,10.81
2017-10-23T18:35:11.629Z,10.80
2017-10-23T18:37:39.115Z,10.79
2017-10-23T18:40:06.666Z,10.80
2017-10-23T18:42:34.163Z,10.81
2017-10-23T18:45:01.651Z,10.80
2017-10-23T18:47:29.158Z,10.80
2017-10-23T18:49:56.673Z,10.87
2017-10-23T18:52:24.162Z,10.81
2017-10-23T18:54:51.666Z,10.78
2017-10-23T18:57:19.153Z,10.82
2017-10-23T18:59:46.637Z,10.87
2017-10-23T19:02:14.145Z,10.82
2017-10-23T19:04:41.682Z,10.80
2017-10-23T19:07:09.178Z,10.89
2017-10-23T19:09:36.671Z,10.91
2017-10-23T19:12:10.584Z,10.87
2017-10-23T19:14:38.139Z,10.87
2017-10-23T19:17:05.630Z,10.91
2017-10-23T19:19:33.518Z,10.86
2017-10-23T19:22:01.031Z,10.84
2017-10-23T19:24:28.543Z,10.94
2017-10-23T19:26:56.096Z,10.92
2017-10-23T19:29:23.597Z,10.91
2017-10-23T19:31:51.069Z,10.89
2017-10-23T19:34:18.570Z,10.93
2017-10-23T19:36:46.071Z,10.90
2017-10-23T19:39:13.596Z,10.91
2017-10-23T19:41:41.147Z,10.89
2017-10-23T19:44:08.628Z,10.96
2017-10-23T19:46:36.093Z,10.90
2017-10-23T19:49:03.633Z,10.93
2017-10-23T19:51:31.100Z,10.91
2017-10-23T19:53:58.599Z,10.93
2017-10-23T19:56:26.118Z,10.95
2017-10-23T19:58:53.687Z,10.91
2017-10-23T20:01:21.179Z,10.97
2017-10-23T20:03:48.703Z,10.96
2017-10-23T20:06:16.177Z,10.92
2017-10-23T20:08:43.724Z,10.91
2017-10-23T20:11:11.279Z,10.98
2017-10-23T20:13:38.769Z,10.96
2017-10-23T20:16:06.873Z,10.99
2017-10-23T20:18:34.377Z,10.92
2017-10-23T20:21:01.859Z,10.90
2017-10-23T20:23:29.347Z,10.93
2017-10-23T20:25:56.855Z,10.92
2017-10-23T20:28:24.369Z,10.96
2017-10-23T20:30:51.866Z,10.93
2017-10-23T20:33:19.401Z,10.87
2017-10-23T20:35:46.940Z,10.91
2017-10-23T20:38:14.514Z,10.91
2017-10-23T20:40:42.052Z,10.83
2017-10-23T20:43:09.577Z,10.85
2017-10-23T20:45:37.041Z,10.89
2017-10-23T20:48:04.541Z,10.91
2017-10-23T20:50:32.056Z,10.88
2017-10-23T20:52:59.569Z,10.93
2017-10-23T20:55:27.039Z,10.87
2017-10-23T20:57:54.494Z,10.92
2017-10-23T21:00:21.954Z,10.89
2017-10-23T21:02:49.498Z,10.95
2017-10-23T21:05:17.004Z,10.86
2017-10-23T21:07:44.461Z,10.87
2017-10-23T21:10:11.945Z,10.90
2017-10-23T21:12:39.429Z,10.95
2017-10-23T21:15:06.963Z,10.94
2017-10-23T21:17:34.491Z,10.92
2017-10-23T21:20:01.966Z,10.88
2017-10-23T21:22:29.417Z,10.88
2017-10-23T21:24:56.903Z,10.89
2017-10-23T21:27:24.364Z,10.83
2017-10-23T21:29:51.822Z,10.81
2017-10-23T21:32:19.314Z,10.80
2017-10-23T21:34:46.777Z,10.75
2017-10-23T21:37:14.295Z,10.80
2017-10-23T21:39:41.796Z,10.74
2017-10-23T21:42:10.458Z,10.71
2017-10-23T21:44:37.925Z,10.68
2017-10-23T21:47:10.425Z,10.67
2017-10-23T21:49:37.937Z,10.67
2017-10-23T21:52:05.470Z,10.65
2017-10-23T21:54:32.975Z,10.71
2017-10-23T21:57:00.431Z,10.77
2017-10-23T21:59:27.908Z,10.73
2017-10-23T22:01:55.444Z,10.73
2017-10-23T22:04:22.920Z,10.74
2017-10-23T22:06:50.475Z,10.72
2017-10-23T22:09:17.959Z,10.76
2017-10-23T22:11:45.441Z,10.70
2017-10-23T22:14:12.899Z,10.68
2017-10-23T22:16:40.362Z,10.67
2017-10-23T22:19:07.818Z,10.69
2017-10-23T22:21:35.275Z,10.71
2017-10-23T22:24:02.800Z,10.72
2017-10-23T22:26:30.262Z,10.70
2017-10-23T22:28:57.757Z,10.69
2017-10-23T22:31:25.245Z,10.68
2017-10-23T22:33:52.702Z,10.68
2017-10-23T22:36:20.172Z,10.66
2017-10-23T22:38:47.642Z,10.56
2017-10-23T22:41:15.111Z,10.65
2017-10-23T22:43:42.578Z,10.61
2017-10-23T22:46:10.078Z,10.57
2017-10-23T22:48:37.534Z,10.57
2017-10-23T22:51:05.032Z,10.51
2017-10-23T22:53:32.550Z,10.53
2017-10-23T22:56:00.019Z,10.54
2017-10-23T22:58:27.504Z,10.52
2017-10-23T23:00:54.981Z,10.54
2017-10-23T23:03:22.468Z,10.57
2017-10-23T23:05:49.965Z,10.54
2017-10-23T23:08:17.509Z,10.55
2017-10-23T23:10:44.982Z,10.58
2017-10-23T23:13:12.455Z,10.61
2017-10-23T23:15:39.969Z,10.60
2017-10-23T23:18:07.455Z,10.63
2017-10-23T23:20:34.974Z,10.61
2017-10-23T23:23:02.488Z,10.67
2017-10-23T23:25:29.991Z,10.71
2017-10-23T23:27:57.437Z,10.75
2017-10-23T23:30:24.909Z,10.71
2017-10-23T23:32:52.537Z,10.69
2017-10-23T23:35:19.998Z,10.71
2017-10-23T23:37:47.481Z,10.69
2017-10-23T23:40:14.982Z,10.63
2017-10-23T23:42:42.463Z,10.63
2017-10-23T23:45:09.967Z,10.61
2017-10-23T23:47:37.424Z,10.60
2017-10-23T23:50:04.871Z,10.59
2017-10-23T23:52:32.348Z,10.60
2017-10-23T23:54:59.822Z,10.57
2017-10-23T23:57:27.276Z,10.61
2017-10-23T23:59:54.775Z,10.62
